createdAt,value
2017-02-20T00:00:52.303Z,962.79
2017-02-20T00:02:03.027Z,962.82
2017-02-20T00:03:13.730Z,962.79
2017-02-20T00:04:24.087Z,962.75
2017-02-20T00:05:34.808Z,962.73
2017-02-20T00:06:45.521Z,962.82
2017-02-20T00:07:56.248Z,962.84
2017-02-20T00:09:06.966Z,962.74
2017-02-20T00:10:17.702Z,962.69
2017-02-20T00:11:28.027Z,962.71
2017-02-20T00:12:38.729Z,962.62
2017-02-20T00:13:49.423Z,962.64
2017-02-20T00:15:00.134Z,962.68
2017-02-20T00:16:10.840Z,962.69
2017-02-20T00:17:21.543Z,962.68
2017-02-20T00:18:32.271Z,962.68
2017-02-20T00:19:42.992Z,962.68
2017-02-20T00:20:53.699Z,962.71
2017-02-20T00:22:04.408Z,962.68
2017-02-20T00:23:14.701Z,962.7
2017-02-20T00:24:25.399Z,962.66
2017-02-20T00:25:36.114Z,962.59
2017-02-20T00:26:46.823Z,962.51
2017-02-20T00:27:57.539Z,962.52
2017-02-20T00:29:08.246Z,962.48
2017-02-20T00:30:18.550Z,962.44
2017-02-20T00:31:29.259Z,962.39
2017-02-20T00:32:39.976Z,962.35
2017-02-20T00:33:50.688Z,962.29
2017-02-20T00:35:01.429Z,962.3
2017-02-20T00:36:12.164Z,962.28
2017-02-20T00:37:22.477Z,962.22
2017-02-20T00:38:33.191Z,962.18
2017-02-20T00:39:43.901Z,962.09
2017-02-20T00:40:54.629Z,962.06
2017-02-20T00:42:05.336Z,962.02
2017-02-20T00:43:16.047Z,961.99
2017-02-20T00:44:26.753Z,961.97
2017-02-20T00:45:37.471Z,961.94
2017-02-20T00:46:48.211Z,961.91
2017-02-20T00:47:58.923Z,961.75
2017-02-20T00:49:09.633Z,961.74
2017-02-20T00:50:19.562Z,961.74
2017-02-20T00:51:30.272Z,961.68
2017-02-20T00:52:40.991Z,961.61
2017-02-20T00:53:51.714Z,961.57
2017-02-20T00:55:02.017Z,961.6
2017-02-20T00:56:12.331Z,961.53
2017-02-20T00:57:22.638Z,961.53
2017-02-20T00:58:33.345Z,961.46
2017-02-20T00:59:44.053Z,961.44
2017-02-20T01:00:54.750Z,961.43
2017-02-20T01:02:05.483Z,961.39
2017-02-20T01:03:15.793Z,961.33
2017-02-20T01:04:26.497Z,961.35
2017-02-20T01:05:37.208Z,961.28
2017-02-20T01:06:47.926Z,961.23
2017-02-20T01:07:58.648Z,961.28
2017-02-20T01:09:09.359Z,961.17
2017-02-20T01:10:19.705Z,961.22
2017-02-20T01:11:30.018Z,961.24
2017-02-20T01:12:40.731Z,961.29
2017-02-20T01:13:51.429Z,961.22
2017-02-20T01:15:02.129Z,961.22
2017-02-20T01:16:12.849Z,961.18
2017-02-20T01:17:23.560Z,961.14
2017-02-20T01:18:33.875Z,961.11
2017-02-20T01:19:44.188Z,961.11
2017-02-20T01:20:54.894Z,961.12
2017-02-20T01:22:05.616Z,961.06
2017-02-20T01:23:15.562Z,961.03
2017-02-20T01:24:25.897Z,961.06
2017-02-20T01:25:36.205Z,960.96
2017-02-20T01:26:46.911Z,960.99
2017-02-20T01:27:57.656Z,960.9
2017-02-20T01:29:08.374Z,960.84
2017-02-20T01:30:18.689Z,960.85
2017-02-20T01:31:29.386Z,960.81
2017-02-20T01:32:40.090Z,960.81
2017-02-20T01:33:50.804Z,960.81
2017-02-20T01:35:01.133Z,960.74
2017-02-20T01:36:11.848Z,960.73
2017-02-20T01:37:22.552Z,960.75
2017-02-20T01:38:33.268Z,960.72
2017-02-20T01:39:43.975Z,960.74
2017-02-20T01:40:54.274Z,960.77
2017-02-20T01:42:04.982Z,960.75
2017-02-20T01:43:14.897Z,960.68
2017-02-20T01:44:25.199Z,960.61
2017-02-20T01:45:35.908Z,960.59
2017-02-20T01:46:46.619Z,960.56
2017-02-20T01:47:57.322Z,960.47
2017-02-20T01:49:08.013Z,960.44
2017-02-20T01:50:18.312Z,960.43
2017-02-20T01:51:29.028Z,960.43
2017-02-20T01:52:39.360Z,960.46
2017-02-20T01:53:50.161Z,960.42
2017-02-20T01:55:00.879Z,960.41
2017-02-20T01:56:11.614Z,960.36
2017-02-20T01:57:21.923Z,960.43
2017-02-20T01:58:32.616Z,960.4
2017-02-20T01:59:43.320Z,960.4
2017-02-20T02:00:54.036Z,960.38
2017-02-20T02:02:04.729Z,960.33
2017-02-20T02:03:14.632Z,960.28
2017-02-20T02:04:24.546Z,960.25
2017-02-20T02:05:35.249Z,960.23
2017-02-20T02:06:45.937Z,960.19
2017-02-20T02:07:56.649Z,960.18
2017-02-20T02:09:07.373Z,960.22
2017-02-20T02:10:18.078Z,960.17
2017-02-20T02:11:28.781Z,960.2
2017-02-20T02:12:39.492Z,960.15
2017-02-20T02:13:50.199Z,960.08
2017-02-20T02:15:00.524Z,960
2017-02-20T02:16:11.227Z,959.96
2017-02-20T02:17:21.550Z,959.94
2017-02-20T02:18:32.250Z,959.89
2017-02-20T02:19:42.962Z,959.83
2017-02-20T02:20:53.661Z,959.89
2017-02-20T02:22:04.373Z,959.86
2017-02-20T02:23:14.279Z,959.85
2017-02-20T02:24:24.998Z,959.85
2017-02-20T02:25:35.708Z,959.86
2017-02-20T02:26:46.423Z,959.87
2017-02-20T02:27:57.138Z,959.86
2017-02-20T02:29:07.744Z,959.83
2017-02-20T02:30:17.660Z,959.81
2017-02-20T02:31:27.978Z,959.78
2017-02-20T02:32:38.690Z,959.79
2017-02-20T02:33:49.426Z,959.77
2017-02-20T02:35:00.142Z,959.79
2017-02-20T02:36:10.856Z,959.71
2017-02-20T02:37:20.762Z,959.68
2017-02-20T02:38:31.483Z,959.74
2017-02-20T02:39:42.190Z,959.64
2017-02-20T02:40:52.887Z,959.56
2017-02-20T02:42:03.615Z,959.56
2017-02-20T02:43:13.532Z,959.52
2017-02-20T02:44:24.262Z,959.53
2017-02-20T02:45:34.970Z,959.49
2017-02-20T02:46:45.676Z,959.48
2017-02-20T02:47:56.369Z,959.42
2017-02-20T02:49:07.079Z,959.44
2017-02-20T02:50:17.795Z,959.49
2017-02-20T02:51:28.508Z,959.43
2017-02-20T02:52:39.196Z,959.41
2017-02-20T02:53:49.898Z,959.41
2017-02-20T02:55:00.601Z,959.45
2017-02-20T02:56:11.335Z,959.41
2017-02-20T02:57:22.039Z,959.39
2017-02-20T02:58:32.730Z,959.39
2017-02-20T02:59:43.435Z,959.36
2017-02-20T03:00:53.772Z,959.34
2017-02-20T03:02:04.478Z,959.36
2017-02-20T03:03:14.792Z,959.31
2017-02-20T03:04:25.110Z,959.28
2017-02-20T03:05:35.818Z,959.21
2017-02-20T03:06:46.526Z,959.16
2017-02-20T03:07:57.276Z,959.2
2017-02-20T03:09:07.973Z,959.22
2017-02-20T03:10:17.880Z,959.16
2017-02-20T03:11:28.570Z,959.1
2017-02-20T03:12:39.292Z,959.11
2017-02-20T03:13:49.994Z,959.09
2017-02-20T03:15:00.718Z,959
2017-02-20T03:16:11.044Z,958.92
2017-02-20T03:17:21.747Z,958.94
2017-02-20T03:18:32.497Z,958.89
2017-02-20T03:19:43.213Z,958.92
2017-02-20T03:20:53.536Z,958.92
2017-02-20T03:22:04.243Z,958.91
2017-02-20T03:23:14.194Z,958.93
2017-02-20T03:24:24.906Z,958.83
2017-02-20T03:25:35.662Z,958.77
2017-02-20T03:26:46.403Z,958.81
2017-02-20T03:27:57.461Z,958.78
2017-02-20T03:29:07.781Z,958.81
2017-02-20T03:30:18.479Z,958.87
2017-02-20T03:31:29.175Z,958.81
2017-02-20T03:32:39.886Z,958.84
2017-02-20T03:33:50.590Z,958.88
2017-02-20T03:35:01.301Z,958.85
2017-02-20T03:36:11.621Z,958.87
2017-02-20T03:37:21.950Z,958.84
2017-02-20T03:38:32.662Z,958.88
2017-02-20T03:40:57.700Z,958.71
2017-02-20T03:42:08.024Z,958.59
2017-02-20T03:43:18.725Z,958.58
2017-02-20T03:44:29.425Z,958.62
2017-02-20T03:45:40.135Z,958.66
2017-02-20T03:46:50.858Z,958.62
2017-02-20T03:48:00.765Z,958.56
2017-02-20T03:49:11.499Z,958.58
2017-02-20T03:50:22.206Z,958.52
2017-02-20T03:51:32.922Z,958.55
2017-02-20T03:52:43.646Z,958.54
2017-02-20T03:53:54.361Z,958.56
2017-02-20T03:55:05.075Z,958.52
2017-02-20T03:56:15.372Z,958.54
2017-02-20T03:57:25.324Z,958.6
2017-02-20T03:58:36.028Z,958.6
2017-02-20T03:59:46.736Z,958.58
2017-02-20T04:00:57.447Z,958.55
2017-02-20T04:02:08.163Z,958.54
2017-02-20T04:03:18.876Z,958.53
2017-02-20T04:04:29.591Z,958.52
2017-02-20T04:05:39.925Z,958.46
2017-02-20T04:06:50.638Z,958.44
2017-02-20T04:08:01.363Z,958.44
2017-02-20T04:09:12.072Z,958.43
2017-02-20T04:10:22.786Z,958.41
2017-02-20T04:11:33.501Z,958.47
2017-02-20T04:12:44.215Z,958.41
2017-02-20T04:13:54.516Z,958.37
2017-02-20T04:15:05.228Z,958.33
2017-02-20T04:16:15.146Z,958.29
2017-02-20T04:17:25.466Z,958.33
2017-02-20T04:18:36.181Z,958.26
2017-02-20T04:19:46.882Z,958.24
2017-02-20T04:20:57.181Z,958.3
2017-02-20T04:22:07.499Z,958.33
2017-02-20T04:23:17.409Z,958.35
2017-02-20T04:24:28.116Z,958.32
2017-02-20T04:25:38.421Z,958.3
2017-02-20T04:26:49.123Z,958.25
2017-02-20T04:27:59.830Z,958.29
2017-02-20T04:29:10.150Z,958.31
2017-02-20T04:30:20.471Z,958.31
2017-02-20T04:31:30.792Z,958.29
2017-02-20T04:32:41.500Z,958.27
2017-02-20T04:33:52.210Z,958.18
2017-02-20T04:35:02.911Z,958.15
2017-02-20T04:36:13.607Z,958.08
2017-02-20T04:37:24.316Z,958.09
2017-02-20T04:38:35.043Z,958.03
2017-02-20T04:39:45.748Z,957.98
2017-02-20T04:40:56.470Z,957.91
2017-02-20T04:42:07.181Z,957.86
2017-02-20T04:43:17.893Z,957.87
2017-02-20T04:44:28.628Z,957.78
2017-02-20T04:45:39.340Z,957.78
2017-02-20T04:46:50.037Z,957.77
2017-02-20T04:48:00.760Z,957.81
2017-02-20T04:49:11.089Z,957.82
2017-02-20T04:50:21.799Z,957.85
2017-02-20T04:51:32.512Z,957.84
2017-02-20T04:52:43.213Z,957.83
2017-02-20T04:53:53.923Z,957.82
2017-02-20T04:55:04.643Z,957.76
2017-02-20T04:56:14.956Z,957.73
2017-02-20T04:57:25.661Z,957.71
2017-02-20T04:58:36.370Z,957.73
2017-02-20T04:59:47.069Z,957.73
2017-02-20T05:00:57.772Z,957.68
2017-02-20T05:02:08.492Z,957.65
2017-02-20T05:03:19.220Z,957.67
2017-02-20T05:04:29.928Z,957.63
2017-02-20T05:05:40.240Z,957.61
2017-02-20T05:06:50.953Z,957.56
2017-02-20T05:08:01.650Z,957.52
2017-02-20T05:09:12.403Z,957.47
2017-02-20T05:10:23.118Z,957.45
2017-02-20T05:11:33.468Z,957.43
2017-02-20T05:12:44.176Z,957.4
2017-02-20T05:13:54.884Z,957.38
2017-02-20T05:15:05.590Z,957.41
2017-02-20T05:16:16.289Z,957.42
2017-02-20T05:17:26.996Z,957.4
2017-02-20T05:18:37.702Z,957.38
2017-02-20T05:19:48.414Z,957.38
2017-02-20T05:20:59.119Z,957.35
2017-02-20T05:22:09.835Z,957.41
2017-02-20T05:23:20.531Z,957.39
2017-02-20T05:24:31.230Z,957.41
2017-02-20T05:25:41.949Z,957.45
2017-02-20T05:26:52.255Z,957.5
2017-02-20T05:28:03.001Z,957.57
2017-02-20T05:29:13.306Z,957.54
2017-02-20T05:30:24.012Z,957.53
2017-02-20T05:31:34.328Z,957.52
2017-02-20T05:32:45.028Z,957.51
2017-02-20T05:33:55.755Z,957.52
2017-02-20T05:35:06.476Z,957.53
2017-02-20T05:36:17.176Z,957.55
2017-02-20T05:37:27.489Z,957.55
2017-02-20T05:38:38.194Z,957.57
2017-02-20T05:39:48.895Z,957.55
2017-02-20T05:40:59.588Z,957.58
2017-02-20T05:42:10.318Z,957.54
2017-02-20T05:43:20.632Z,957.54
2017-02-20T05:44:31.373Z,957.52
2017-02-20T05:45:42.086Z,957.53
2017-02-20T05:46:52.807Z,957.55
2017-02-20T05:48:03.549Z,957.55
2017-02-20T05:49:14.263Z,957.57
2017-02-20T05:50:24.593Z,957.54
2017-02-20T05:51:34.896Z,957.55
2017-02-20T05:52:45.601Z,957.54
2017-02-20T05:53:56.333Z,957.49
2017-02-20T05:55:07.042Z,957.57
2017-02-20T05:56:17.381Z,957.57
2017-02-20T05:57:28.108Z,957.53
2017-02-20T05:58:38.804Z,957.53
2017-02-20T05:59:49.513Z,957.55
2017-02-20T06:01:00.222Z,957.5
2017-02-20T06:02:10.530Z,957.54
2017-02-20T06:03:20.841Z,957.56
2017-02-20T06:04:31.538Z,957.56
2017-02-20T06:05:42.274Z,957.59
2017-02-20T06:06:53.007Z,957.5
2017-02-20T06:08:03.370Z,957.53
2017-02-20T06:09:13.690Z,957.54
2017-02-20T06:10:24.396Z,957.54
2017-02-20T06:11:35.094Z,957.53
2017-02-20T06:12:45.838Z,957.52
2017-02-20T06:13:56.554Z,957.51
2017-02-20T06:15:07.252Z,957.53
2017-02-20T06:16:17.572Z,957.54
2017-02-20T06:17:28.280Z,957.55
2017-02-20T06:18:38.990Z,957.54
2017-02-20T06:19:49.693Z,957.59
2017-02-20T06:21:00.399Z,957.58
2017-02-20T06:22:11.105Z,957.57
2017-02-20T06:23:21.425Z,957.6
2017-02-20T06:24:32.117Z,957.55
2017-02-20T06:25:42.416Z,957.52
2017-02-20T06:26:53.123Z,957.49
2017-02-20T06:28:03.835Z,957.45
2017-02-20T06:29:14.549Z,957.42
2017-02-20T06:30:25.244Z,957.45
2017-02-20T06:31:35.968Z,957.44
2017-02-20T06:32:46.679Z,957.51
2017-02-20T06:33:57.397Z,957.55
2017-02-20T06:35:07.702Z,957.53
2017-02-20T06:36:18.415Z,957.56
2017-02-20T06:37:29.134Z,957.58
2017-02-20T06:38:39.844Z,957.57
2017-02-20T06:39:50.562Z,957.61
2017-02-20T06:41:01.267Z,957.59
2017-02-20T06:42:11.971Z,957.63
2017-02-20T06:43:22.278Z,957.63
2017-02-20T06:44:32.980Z,957.63
2017-02-20T06:45:43.693Z,957.62
2017-02-20T06:46:54.399Z,957.62
2017-02-20T06:48:05.128Z,957.64
2017-02-20T06:49:15.077Z,957.65
2017-02-20T06:50:25.788Z,957.64
2017-02-20T06:51:36.509Z,957.65
2017-02-20T06:52:47.247Z,957.68
2017-02-20T06:53:57.965Z,957.71
2017-02-20T06:55:08.683Z,957.68
2017-02-20T06:56:19.392Z,957.66
2017-02-20T06:57:30.117Z,957.63
2017-02-20T06:58:40.824Z,957.62
2017-02-20T06:59:51.545Z,957.63
2017-02-20T07:01:01.868Z,957.68
2017-02-20T07:02:12.576Z,957.66
2017-02-20T07:03:22.132Z,957.67
2017-02-20T07:04:32.833Z,957.68
2017-02-20T07:05:43.579Z,957.66
2017-02-20T07:06:54.273Z,957.64
2017-02-20T07:08:04.595Z,957.66
2017-02-20T07:09:14.910Z,957.61
2017-02-20T07:10:25.612Z,957.59
2017-02-20T07:11:36.334Z,957.59
2017-02-20T07:12:47.042Z,957.63
2017-02-20T07:13:57.766Z,957.6
2017-02-20T07:15:08.504Z,957.59
2017-02-20T07:16:18.819Z,957.63
2017-02-20T07:17:29.524Z,957.58
2017-02-20T07:18:40.227Z,957.56
2017-02-20T07:19:50.946Z,957.56
2017-02-20T07:21:01.660Z,957.52
2017-02-20T07:22:12.362Z,957.51
2017-02-20T07:23:23.072Z,957.52
2017-02-20T07:24:33.780Z,957.46
2017-02-20T07:25:44.480Z,957.44
2017-02-20T07:26:55.205Z,957.44
2017-02-20T07:28:05.939Z,957.44
2017-02-20T07:29:16.665Z,957.45
2017-02-20T07:30:26.983Z,957.42
2017-02-20T07:31:37.700Z,957.44
2017-02-20T07:32:48.014Z,957.46
2017-02-20T07:33:58.738Z,957.43
2017-02-20T07:35:09.462Z,957.42
2017-02-20T07:36:19.797Z,957.46
2017-02-20T07:37:30.496Z,957.43
2017-02-20T07:38:41.200Z,957.42
2017-02-20T07:39:51.900Z,957.41
2017-02-20T07:41:02.612Z,957.41
2017-02-20T07:42:12.941Z,957.39
2017-02-20T07:43:23.278Z,957.38
2017-02-20T07:44:33.587Z,957.37
2017-02-20T07:45:44.297Z,957.41
2017-02-20T07:46:55.024Z,957.43
2017-02-20T07:48:05.748Z,957.46
2017-02-20T07:49:15.274Z,957.44
2017-02-20T07:50:25.982Z,957.39
2017-02-20T07:51:36.304Z,957.36
2017-02-20T07:52:46.602Z,957.33
2017-02-20T07:53:57.311Z,957.29
2017-02-20T07:55:08.026Z,957.25
2017-02-20T07:56:18.334Z,957.29
2017-02-20T07:57:29.047Z,957.28
2017-02-20T07:58:39.764Z,957.29
2017-02-20T07:59:50.480Z,957.33
2017-02-20T08:01:01.198Z,957.37
2017-02-20T08:02:11.935Z,957.41
2017-02-20T08:03:22.657Z,957.36
2017-02-20T08:04:33.362Z,957.37
2017-02-20T08:05:44.071Z,957.37
2017-02-20T08:06:54.791Z,957.38
2017-02-20T08:08:05.531Z,957.29
2017-02-20T08:09:15.841Z,957.36
2017-02-20T08:10:26.552Z,957.34
2017-02-20T08:11:37.291Z,957.4
2017-02-20T08:12:47.999Z,957.4
2017-02-20T08:13:58.708Z,957.38
2017-02-20T08:15:09.017Z,957.38
2017-02-20T08:16:19.328Z,957.34
2017-02-20T08:17:29.649Z,957.34
2017-02-20T08:18:39.967Z,957.29
2017-02-20T08:19:50.661Z,957.32
2017-02-20T08:21:01.366Z,957.24
2017-02-20T08:22:11.699Z,957.24
2017-02-20T08:23:22.018Z,957.15
2017-02-20T08:24:32.724Z,957.13
2017-02-20T08:25:43.026Z,957.21
2017-02-20T08:26:53.720Z,957.22
2017-02-20T08:28:04.039Z,957.2
2017-02-20T08:29:14.342Z,957.18
2017-02-20T08:30:25.060Z,957.22
2017-02-20T08:31:35.784Z,957.21
2017-02-20T08:32:46.525Z,957.23
2017-02-20T08:33:57.257Z,957.21
2017-02-20T08:35:07.968Z,957.13
2017-02-20T08:36:18.280Z,957.12
2017-02-20T08:37:29.000Z,957.12
2017-02-20T08:38:39.319Z,957.14
2017-02-20T08:39:49.631Z,957.16
2017-02-20T08:41:00.338Z,957.18
2017-02-20T08:42:10.657Z,957.18
2017-02-20T08:43:21.361Z,957.18
2017-02-20T08:44:32.073Z,957.2
2017-02-20T08:45:42.777Z,957.21
2017-02-20T08:46:53.498Z,957.17
2017-02-20T08:48:04.206Z,957.18
2017-02-20T08:49:14.911Z,957.16
2017-02-20T08:50:25.612Z,957.17
2017-02-20T08:51:36.328Z,957.07
2017-02-20T08:52:47.036Z,957.05
2017-02-20T08:53:57.753Z,956.96
2017-02-20T08:55:08.082Z,956.98
2017-02-20T08:56:18.391Z,956.97
2017-02-20T08:57:28.699Z,956.95
2017-02-20T08:58:39.407Z,956.97
2017-02-20T08:59:50.120Z,956.92
2017-02-20T09:01:00.835Z,956.97
2017-02-20T09:02:11.174Z,957.04
2017-02-20T09:03:21.883Z,957.08
2017-02-20T09:04:32.632Z,957.06
2017-02-20T09:05:43.346Z,957.08
2017-02-20T09:06:54.057Z,957.11
2017-02-20T09:08:04.777Z,957.1
2017-02-20T09:09:15.519Z,957.05
2017-02-20T09:10:25.820Z,957.08
2017-02-20T09:11:36.529Z,957.13
2017-02-20T09:12:47.252Z,957.14
2017-02-20T09:13:57.951Z,957.19
2017-02-20T09:15:07.872Z,957.19
2017-02-20T09:16:18.585Z,957.16
2017-02-20T09:17:29.289Z,957.18
2017-02-20T09:18:40.009Z,957.14
2017-02-20T09:19:50.338Z,957.16
2017-02-20T09:21:01.064Z,957.23
2017-02-20T09:22:11.786Z,957.16
2017-02-20T09:23:22.515Z,957.18
2017-02-20T09:24:33.237Z,957.2
2017-02-20T09:25:43.557Z,957.19
2017-02-20T09:26:53.068Z,957.17
2017-02-20T09:28:03.378Z,957.14
2017-02-20T09:29:13.690Z,957.18
2017-02-20T09:30:24.395Z,957.21
2017-02-20T09:31:35.101Z,957.19
2017-02-20T09:32:45.810Z,957.23
2017-02-20T09:33:56.526Z,957.26
2017-02-20T09:35:07.231Z,957.26
2017-02-20T09:36:17.159Z,957.26
2017-02-20T09:37:27.855Z,957.19
2017-02-20T09:38:38.190Z,957.18
2017-02-20T09:39:48.907Z,957.15
2017-02-20T09:40:59.238Z,957.1
2017-02-20T09:42:09.940Z,957.16
2017-02-20T09:43:20.265Z,957.17
2017-02-20T09:44:30.964Z,957.19
2017-02-20T09:45:41.689Z,957.19
2017-02-20T09:46:51.998Z,957.24
2017-02-20T09:48:02.699Z,957.19
2017-02-20T09:49:12.236Z,957.22
2017-02-20T09:50:22.555Z,957.22
2017-02-20T09:51:33.262Z,957.16
2017-02-20T09:52:43.973Z,957.2
2017-02-20T09:53:54.285Z,957.13
2017-02-20T09:55:04.982Z,957.11
2017-02-20T09:56:15.314Z,957.08
2017-02-20T09:57:26.046Z,957.09
2017-02-20T09:58:36.772Z,957.12
2017-02-20T09:59:47.480Z,957.12
2017-02-20T10:00:58.185Z,957.22
2017-02-20T10:02:08.504Z,957.18
2017-02-20T10:03:19.229Z,957.18
2017-02-20T10:04:29.943Z,957.18
2017-02-20T10:05:40.253Z,957.19
2017-02-20T10:06:50.954Z,957.18
2017-02-20T10:08:01.670Z,957.18
2017-02-20T10:09:12.378Z,957.22
2017-02-20T10:10:23.088Z,957.3
2017-02-20T10:11:33.409Z,957.35
2017-02-20T10:12:43.328Z,957.36
2017-02-20T10:13:53.628Z,957.31
2017-02-20T10:15:03.976Z,957.33
2017-02-20T10:16:14.290Z,957.43
2017-02-20T10:17:24.592Z,957.4
2017-02-20T10:18:35.310Z,957.45
2017-02-20T10:19:46.033Z,957.43
2017-02-20T10:20:56.334Z,957.48
2017-02-20T10:22:06.642Z,957.51
2017-02-20T10:23:16.945Z,957.5
2017-02-20T10:24:27.266Z,957.56
2017-02-20T10:25:37.582Z,957.51
2017-02-20T10:26:47.883Z,957.46
2017-02-20T10:27:58.193Z,957.4
2017-02-20T10:29:08.914Z,957.44
2017-02-20T10:30:19.633Z,957.43
2017-02-20T10:31:30.319Z,957.39
2017-02-20T10:32:41.036Z,957.42
2017-02-20T10:33:51.350Z,957.39
2017-02-20T10:35:02.061Z,957.36
2017-02-20T10:36:12.379Z,957.32
2017-02-20T10:37:23.100Z,957.26
2017-02-20T10:38:33.816Z,957.28
2017-02-20T10:39:44.115Z,957.32
2017-02-20T10:40:54.828Z,957.35
2017-02-20T10:42:05.536Z,957.37
2017-02-20T10:43:15.861Z,957.39
2017-02-20T10:44:26.161Z,957.4
2017-02-20T10:45:36.882Z,957.37
2017-02-20T10:46:47.193Z,957.3
2017-02-20T10:47:57.902Z,957.24
2017-02-20T10:49:08.238Z,957.27
2017-02-20T10:50:18.559Z,957.26
2017-02-20T10:51:29.279Z,957.2
2017-02-20T10:52:39.982Z,957.25
2017-02-20T10:53:50.695Z,957.21
2017-02-20T10:55:01.415Z,957.17
2017-02-20T10:56:12.131Z,957.15
2017-02-20T10:57:22.035Z,957.19
2017-02-20T10:58:32.748Z,957.2
2017-02-20T10:59:43.488Z,957.16
2017-02-20T11:00:53.791Z,957.15
2017-02-20T11:02:04.113Z,957.08
2017-02-20T11:03:14.858Z,957.06
2017-02-20T11:04:25.567Z,957.08
2017-02-20T11:05:35.892Z,957.05
2017-02-20T11:06:46.607Z,956.99
2017-02-20T11:07:57.323Z,956.97
2017-02-20T11:09:08.036Z,956.96
2017-02-20T11:10:18.354Z,956.99
2017-02-20T11:11:29.070Z,957.05
2017-02-20T11:12:39.386Z,956.98
2017-02-20T11:13:49.700Z,957
2017-02-20T11:15:00.403Z,956.99
2017-02-20T11:16:10.722Z,957.02
2017-02-20T11:17:21.071Z,957.05
2017-02-20T11:18:31.814Z,957.04
2017-02-20T11:19:42.520Z,957.05
2017-02-20T11:20:52.856Z,957.03
2017-02-20T11:22:03.571Z,957.06
2017-02-20T11:23:13.904Z,957
2017-02-20T11:24:24.666Z,956.99
2017-02-20T11:25:35.385Z,956.94
2017-02-20T11:26:45.701Z,956.95
2017-02-20T11:27:56.408Z,956.94
2017-02-20T11:29:06.723Z,956.95
2017-02-20T11:30:17.035Z,956.96
2017-02-20T11:31:27.750Z,956.99
2017-02-20T11:32:38.450Z,956.96
2017-02-20T11:33:49.159Z,956.91
2017-02-20T11:34:59.068Z,956.9
2017-02-20T11:36:09.813Z,956.92
2017-02-20T11:37:20.518Z,956.93
2017-02-20T11:38:31.240Z,956.91
2017-02-20T11:39:41.943Z,956.89
2017-02-20T11:40:52.643Z,956.92
2017-02-20T11:42:03.345Z,956.89
2017-02-20T11:43:14.056Z,956.85
2017-02-20T11:44:24.761Z,956.83
2017-02-20T11:45:35.460Z,956.83
2017-02-20T11:46:46.170Z,956.84
2017-02-20T11:47:56.496Z,956.87
2017-02-20T11:49:07.234Z,956.84
2017-02-20T11:50:17.948Z,956.84
2017-02-20T11:51:28.662Z,956.79
2017-02-20T11:52:39.372Z,956.77
2017-02-20T11:53:50.081Z,956.78
2017-02-20T11:55:00.793Z,956.73
2017-02-20T11:56:10.704Z,956.74
2017-02-20T11:57:20.627Z,956.71
2017-02-20T11:58:31.329Z,956.73
2017-02-20T11:59:42.059Z,956.76
2017-02-20T12:00:52.371Z,956.72
2017-02-20T12:02:03.127Z,956.73
2017-02-20T12:03:13.048Z,956.77
2017-02-20T12:04:23.359Z,956.75
2017-02-20T12:05:34.058Z,956.75
2017-02-20T12:06:44.760Z,956.76
2017-02-20T12:07:55.485Z,956.74
2017-02-20T12:09:06.193Z,956.72
2017-02-20T12:10:16.126Z,956.76
2017-02-20T12:11:26.835Z,956.79
2017-02-20T12:12:37.164Z,956.82
2017-02-20T12:13:47.870Z,956.78
2017-02-20T12:14:58.568Z,956.74
2017-02-20T12:16:09.318Z,956.71
2017-02-20T12:17:19.632Z,956.71
2017-02-20T12:18:30.354Z,956.72
2017-02-20T12:19:40.285Z,956.7
2017-02-20T12:20:51.002Z,956.67
2017-02-20T12:22:01.735Z,956.66
2017-02-20T12:23:14.060Z,956.65
2017-02-20T12:24:24.794Z,956.7
2017-02-20T12:25:35.517Z,956.7
2017-02-20T12:26:45.843Z,956.68
2017-02-20T12:27:56.573Z,956.73
2017-02-20T12:29:07.297Z,956.78
2017-02-20T12:30:17.608Z,956.81
2017-02-20T12:31:28.317Z,956.87
2017-02-20T12:32:38.655Z,956.81
2017-02-20T12:33:49.364Z,956.81
2017-02-20T12:35:01.983Z,956.79
2017-02-20T12:36:12.305Z,956.78
2017-02-20T12:37:22.224Z,956.73
2017-02-20T12:38:32.937Z,956.7
2017-02-20T12:39:43.644Z,956.72
2017-02-20T12:40:53.956Z,956.68
2017-02-20T12:42:04.261Z,956.66
2017-02-20T12:43:14.965Z,956.68
2017-02-20T12:44:25.681Z,956.65
2017-02-20T12:45:36.398Z,956.7
2017-02-20T12:46:46.702Z,956.7
2017-02-20T12:47:57.413Z,956.66
2017-02-20T12:49:08.135Z,956.7
2017-02-20T12:50:18.855Z,956.71
2017-02-20T12:51:29.569Z,956.7
2017-02-20T12:52:40.273Z,956.64
2017-02-20T12:53:50.999Z,956.6
2017-02-20T12:55:01.712Z,956.52
2017-02-20T12:56:12.421Z,956.54
2017-02-20T12:57:23.128Z,956.48
2017-02-20T12:58:33.848Z,956.47
2017-02-20T12:59:44.162Z,956.42
2017-02-20T13:00:54.485Z,956.43
2017-02-20T13:02:04.812Z,956.41
2017-02-20T13:03:15.118Z,956.38
2017-02-20T13:04:25.825Z,956.35
2017-02-20T13:05:36.545Z,956.3
2017-02-20T13:06:47.268Z,956.26
2017-02-20T13:07:57.580Z,956.2
2017-02-20T13:09:08.294Z,956.22
2017-02-20T13:10:18.618Z,956.23
2017-02-20T13:11:28.954Z,956.25
2017-02-20T13:12:38.889Z,956.28
2017-02-20T13:13:49.598Z,956.3
2017-02-20T13:14:59.923Z,956.3
2017-02-20T13:16:10.238Z,956.27
2017-02-20T13:17:20.584Z,956.23
2017-02-20T13:18:31.322Z,956.2
2017-02-20T13:19:42.047Z,956.16
2017-02-20T13:20:52.391Z,956.14
2017-02-20T13:22:03.153Z,956.14
2017-02-20T13:23:13.894Z,956.23
2017-02-20T13:24:24.622Z,956.18
2017-02-20T13:25:35.354Z,956.19
2017-02-20T13:26:45.668Z,956.13
2017-02-20T13:27:56.386Z,956.07
2017-02-20T13:29:07.103Z,956.11
2017-02-20T13:30:17.823Z,956.12
2017-02-20T13:31:28.527Z,956.15
2017-02-20T13:32:39.240Z,956.13
2017-02-20T13:33:49.160Z,956.06
2017-02-20T13:34:59.873Z,956.02
2017-02-20T13:36:10.581Z,955.95
2017-02-20T13:37:21.284Z,955.94
2017-02-20T13:38:31.998Z,955.91
2017-02-20T13:39:42.319Z,955.96
2017-02-20T13:40:53.039Z,955.97
2017-02-20T13:42:03.750Z,955.97
2017-02-20T13:43:14.471Z,955.95
2017-02-20T13:44:24.789Z,955.98
2017-02-20T13:45:35.113Z,955.99
2017-02-20T13:46:45.837Z,955.98
2017-02-20T13:47:56.557Z,955.96
2017-02-20T13:49:07.264Z,955.98
2017-02-20T13:50:17.961Z,956.04
2017-02-20T13:51:28.682Z,956.02
2017-02-20T13:52:39.047Z,955.97
2017-02-20T13:53:48.961Z,955.97
2017-02-20T13:54:59.273Z,955.94
2017-02-20T13:56:09.180Z,955.92
2017-02-20T13:57:19.511Z,955.95
2017-02-20T13:58:29.818Z,955.96
2017-02-20T13:59:39.745Z,955.9
2017-02-20T14:00:50.066Z,955.79
2017-02-20T14:02:00.781Z,955.8
2017-02-20T14:03:11.514Z,955.85
2017-02-20T14:04:22.228Z,955.94
2017-02-20T14:05:32.951Z,955.9
2017-02-20T14:06:43.266Z,955.81
2017-02-20T14:07:53.969Z,955.8
2017-02-20T14:09:04.670Z,955.85
2017-02-20T14:10:14.983Z,955.85
2017-02-20T14:11:25.697Z,955.85
2017-02-20T14:12:36.418Z,955.81
2017-02-20T14:13:47.148Z,955.67
2017-02-20T14:14:57.458Z,955.62
2017-02-20T14:16:08.185Z,955.58
2017-02-20T14:17:18.915Z,955.52
2017-02-20T14:18:29.218Z,955.54
2017-02-20T14:19:39.532Z,955.56
2017-02-20T14:20:50.239Z,955.5
2017-02-20T14:22:00.957Z,955.53
2017-02-20T14:23:11.268Z,955.46
2017-02-20T14:24:21.981Z,955.42
2017-02-20T14:25:32.694Z,955.35
2017-02-20T14:26:43.407Z,955.29
2017-02-20T14:27:53.725Z,955.28
2017-02-20T14:29:04.430Z,955.27
2017-02-20T14:30:15.161Z,955.28
2017-02-20T14:31:25.864Z,955.22
2017-02-20T14:32:36.189Z,955.28
2017-02-20T14:33:46.897Z,955.25
2017-02-20T14:34:57.600Z,955.24
2017-02-20T14:36:07.920Z,955.2
2017-02-20T14:37:18.628Z,955.22
2017-02-20T14:38:29.344Z,955.19
2017-02-20T14:39:40.048Z,955.17
2017-02-20T14:40:50.768Z,955.14
2017-02-20T14:42:01.467Z,955.19
2017-02-20T14:43:11.768Z,955.21
2017-02-20T14:44:22.501Z,955.2